createdAt,value
2023-01-26T00:03:16.010Z,19.27
2023-01-26T00:06:47.764Z,15.20
2023-01-26T00:10:19.998Z,18.38
2023-01-26T00:13:58.669Z,15.20
2023-01-26T00:17:30.813Z,15.18
2023-01-26T00:21:02.840Z,16.75
2023-01-26T00:24:34.865Z,14.88
2023-01-26T00:28:06.744Z,15.53
2023-01-26T00:31:38.733Z,16.67
2023-01-26T00:35:10.802Z,14.95
2023-01-26T00:38:43.986Z,14.53
2023-01-26T00:42:16.392Z,16.02
2023-01-26T00:45:48.433Z,15.75
2023-01-26T00:49:21.217Z,15.67
2023-01-26T00:52:53.924Z,13.48
2023-01-26T00:56:28.047Z,13.70
2023-01-26T00:59:59.914Z,12.30
2023-01-26T01:03:32.208Z,11.90
2023-01-26T01:07:04.082Z,11.75
2023-01-26T01:10:36.094Z,11.10
2023-01-26T01:14:07.860Z,10.17
2023-01-26T01:17:40.159Z,12.13
2023-01-26T01:21:14.714Z,11.82
2023-01-26T01:24:46.821Z,11.20
2023-01-26T01:28:18.552Z,11.90
2023-01-26T01:31:50.565Z,11.90
2023-01-26T01:35:22.315Z,11.98
2023-01-26T01:38:54.304Z,10.13
2023-01-26T01:42:26.759Z,10.55
2023-01-26T01:46:01.292Z,11.02
2023-01-26T01:49:46.473Z,11.53
2023-01-26T01:53:24.687Z,11.02
2023-01-26T01:56:59.243Z,10.50
2023-01-26T02:00:31.506Z,11.30
2023-01-26T02:04:05.920Z,11.13
2023-01-26T02:07:38.909Z,10.02
2023-01-26T02:11:15.067Z,9.75
2023-01-26T02:14:47.226Z,9.40
2023-01-26T02:18:19.280Z,10.20
2023-01-26T02:21:54.944Z,9.90
2023-01-26T02:25:53.994Z,9.57
2023-01-26T02:29:26.973Z,10.52
2023-01-26T02:32:59.050Z,9.80
2023-01-26T02:36:32.839Z,10.37
2023-01-26T02:40:13.316Z,10.27
2023-01-26T02:43:45.489Z,10.75
2023-01-26T02:47:19.131Z,10.77
2023-01-26T02:50:51.127Z,9.67
2023-01-26T02:54:41.097Z,11.77
2023-01-26T02:58:13.176Z,9.80
2023-01-26T03:01:44.892Z,8.53
2023-01-26T03:05:17.439Z,9.52
2023-01-26T03:08:49.350Z,10.23
2023-01-26T03:12:21.402Z,9.20
2023-01-26T03:15:54.679Z,8.98
2023-01-26T03:19:45.540Z,10.25
2023-01-26T03:23:35.893Z,9.57
2023-01-26T03:27:28.372Z,9.27
2023-01-26T03:31:00.283Z,8.85
2023-01-26T03:34:32.774Z,9.13
2023-01-26T03:38:04.517Z,10.63
2023-01-26T03:41:55.683Z,11.68
2023-01-26T03:45:46.348Z,9.60
2023-01-26T03:49:36.651Z,11.00
2023-01-26T03:53:34.850Z,8.73
2023-01-26T03:57:07.290Z,8.30
2023-01-26T04:00:39.055Z,8.98
2023-01-26T04:04:30.108Z,8.87
2023-01-26T04:08:22.779Z,9.13
2023-01-26T04:11:54.862Z,8.40
2023-01-26T04:15:44.765Z,7.73
2023-01-26T04:19:35.533Z,8.70
2023-01-26T04:23:07.335Z,7.88
2023-01-26T04:26:39.884Z,9.60
2023-01-26T04:30:13.889Z,7.25
2023-01-26T04:33:46.131Z,6.97
2023-01-26T04:37:17.818Z,8.43
2023-01-26T04:40:54.840Z,7.40
2023-01-26T04:44:26.586Z,9.60
2023-01-26T04:47:58.627Z,8.63
2023-01-26T04:51:30.412Z,7.10
2023-01-26T04:55:02.546Z,8.30
2023-01-26T04:58:34.566Z,9.02
2023-01-26T05:02:06.819Z,8.13
2023-01-26T05:05:39.740Z,8.70
2023-01-26T05:09:11.805Z,10.60
2023-01-26T05:12:43.584Z,11.30
2023-01-26T05:16:16.797Z,10.00
2023-01-26T05:19:48.925Z,10.65
2023-01-26T05:23:21.179Z,11.27
2023-01-26T05:27:13.086Z,11.63
2023-01-26T05:30:48.498Z,11.05
2023-01-26T05:34:20.735Z,10.38
2023-01-26T05:37:53.068Z,11.33
2023-01-26T05:41:24.930Z,9.25
2023-01-26T05:44:56.942Z,10.82
2023-01-26T05:48:28.753Z,8.50
2023-01-26T05:52:01.226Z,8.90
2023-01-26T05:55:33.102Z,9.00
2023-01-26T05:59:05.800Z,8.82
2023-01-26T06:02:37.824Z,10.03
2023-01-26T06:06:10.104Z,9.38
2023-01-26T06:09:42.013Z,9.35
2023-01-26T06:13:14.019Z,9.60
2023-01-26T06:16:46.039Z,9.93
2023-01-26T06:20:18.119Z,8.38
2023-01-26T06:23:50.037Z,9.85
2023-01-26T06:27:24.429Z,9.03
2023-01-26T06:31:00.641Z,8.82
2023-01-26T06:34:34.094Z,9.43
2023-01-26T06:38:07.712Z,9.47
2023-01-26T06:41:42.347Z,7.75
2023-01-26T06:45:15.436Z,9.30
2023-01-26T06:48:47.494Z,9.67
2023-01-26T06:52:29.830Z,10.07
2023-01-26T06:56:01.936Z,9.35
2023-01-26T06:59:34.336Z,9.38
2023-01-26T07:03:08.777Z,8.17
2023-01-26T07:06:40.572Z,10.38
2023-01-26T07:10:13.099Z,9.02
2023-01-26T07:13:44.980Z,7.20
2023-01-26T07:17:17.191Z,9.13
2023-01-26T07:20:49.645Z,8.68
2023-01-26T07:24:22.018Z,7.63
2023-01-26T07:27:59.043Z,8.45
2023-01-26T07:31:32.287Z,9.27
2023-01-26T07:35:05.009Z,9.85
2023-01-26T07:38:37.146Z,10.17
2023-01-26T07:42:10.258Z,10.43
2023-01-26T07:45:51.500Z,9.13
2023-01-26T07:49:23.422Z,11.03
2023-01-26T07:52:55.973Z,10.68
2023-01-26T07:56:28.278Z,14.27
2023-01-26T08:00:00.221Z,11.47
2023-01-26T08:03:31.944Z,12.43
2023-01-26T08:07:03.954Z,10.57
2023-01-26T08:10:36.426Z,14.65
2023-01-26T08:14:08.705Z,13.57
2023-01-26T08:17:40.900Z,9.88
2023-01-26T08:21:14.233Z,9.82
2023-01-26T08:24:46.026Z,8.43
2023-01-26T08:28:21.132Z,8.73
2023-01-26T08:31:53.749Z,8.77
2023-01-26T08:35:25.816Z,7.27
2023-01-26T08:38:58.292Z,8.43
2023-01-26T08:42:30.369Z,9.57
2023-01-26T08:46:02.267Z,8.20
2023-01-26T08:49:34.821Z,8.47
2023-01-26T08:53:06.563Z,7.97
2023-01-26T08:56:38.597Z,8.75
2023-01-26T09:00:11.893Z,12.13
2023-01-26T09:03:45.091Z,10.52
2023-01-26T09:07:17.065Z,8.30
2023-01-26T09:10:48.820Z,8.43
2023-01-26T09:14:21.983Z,7.38
2023-01-26T09:17:54.798Z,9.30
2023-01-26T09:21:26.843Z,6.60
2023-01-26T09:24:59.039Z,5.23
2023-01-26T09:28:31.980Z,5.93
2023-01-26T09:32:03.809Z,7.22
2023-01-26T09:35:35.843Z,7.23
2023-01-26T09:39:08.029Z,7.32
2023-01-26T09:43:00.240Z,5.82
2023-01-26T09:46:55.919Z,7.00
2023-01-26T09:50:39.262Z,5.38
2023-01-26T09:54:16.101Z,7.63
2023-01-26T09:57:50.547Z,6.63
2023-01-26T10:01:36.642Z,7.67
2023-01-26T10:05:19.705Z,7.30
2023-01-26T10:08:51.526Z,8.25
2023-01-26T10:12:28.631Z,7.27
2023-01-26T10:16:03.694Z,8.63
2023-01-26T10:20:05.721Z,7.55
2023-01-26T10:23:47.909Z,7.63
2023-01-26T10:27:20.178Z,7.75
2023-01-26T10:30:52.222Z,7.72
2023-01-26T10:34:26.824Z,8.20
2023-01-26T10:37:59.652Z,6.73
2023-01-26T10:41:33.008Z,7.90
2023-01-26T10:45:23.155Z,6.95
2023-01-26T10:48:57.744Z,7.73
2023-01-26T10:52:29.554Z,7.40
2023-01-26T10:56:04.637Z,8.23
2023-01-26T11:00:08.119Z,8.83
2023-01-26T11:03:40.386Z,7.72
2023-01-26T11:07:26.420Z,9.20
2023-01-26T11:10:58.536Z,7.63
2023-01-26T11:14:31.587Z,7.57
2023-01-26T11:18:13.235Z,7.65
2023-01-26T11:21:55.458Z,8.13
2023-01-26T11:25:36.676Z,7.87
2023-01-26T11:29:29.171Z,6.68
2023-01-26T11:33:25.743Z,8.77
2023-01-26T11:37:45.967Z,8.43
2023-01-26T11:41:29.353Z,7.53
2023-01-26T11:45:36.646Z,8.70
2023-01-26T11:49:28.789Z,8.63
2023-01-26T11:53:17.392Z,7.97
2023-01-26T11:57:27.183Z,8.82
2023-01-26T12:01:01.810Z,7.75
2023-01-26T12:04:39.115Z,6.63
2023-01-26T12:08:29.993Z,6.88
2023-01-26T12:12:12.767Z,7.10
2023-01-26T12:15:51.903Z,6.67
2023-01-26T12:19:26.892Z,7.00
2023-01-26T12:23:12.056Z,6.32
2023-01-26T12:26:48.446Z,7.30
2023-01-26T12:30:36.635Z,5.87
2023-01-26T12:34:13.095Z,7.47
2023-01-26T12:37:51.894Z,5.93
2023-01-26T12:41:44.167Z,6.03
2023-01-26T12:45:25.439Z,5.75
2023-01-26T12:49:04.140Z,5.47
2023-01-26T12:52:51.853Z,5.93
2023-01-26T12:56:43.273Z,6.38
2023-01-26T13:00:25.360Z,5.88
2023-01-26T13:04:01.708Z,5.78
2023-01-26T13:07:39.719Z,6.90
2023-01-26T13:11:42.203Z,6.25
2023-01-26T13:15:16.004Z,6.22
2023-01-26T13:18:51.679Z,7.93
2023-01-26T13:22:23.762Z,5.95
2023-01-26T13:26:41.604Z,6.47
2023-01-26T13:30:40.028Z,6.87
2023-01-26T13:34:16.388Z,7.30
2023-01-26T13:37:57.475Z,6.45
2023-01-26T13:41:29.536Z,8.55
2023-01-26T13:45:06.290Z,8.53
2023-01-26T13:48:49.120Z,7.55
2023-01-26T13:52:24.206Z,7.63
2023-01-26T13:55:59.647Z,6.53
2023-01-26T13:59:33.364Z,7.40
2023-01-26T14:03:05.812Z,7.28
2023-01-26T14:06:38.393Z,7.47
2023-01-26T14:10:20.629Z,8.57
2023-01-26T14:13:58.209Z,7.38
2023-01-26T14:17:36.794Z,7.00
2023-01-26T14:21:19.965Z,6.83
2023-01-26T14:24:53.313Z,6.88
2023-01-26T14:28:31.982Z,6.95
2023-01-26T14:32:05.245Z,6.60
2023-01-26T14:35:37.248Z,7.45
2023-01-26T14:39:18.515Z,7.20
2023-01-26T14:42:53.595Z,7.67
2023-01-26T14:46:36.838Z,7.50
2023-01-26T14:50:27.797Z,7.10
2023-01-26T14:54:03.449Z,7.72
2023-01-26T14:57:35.443Z,7.10
2023-01-26T15:01:07.616Z,6.78
2023-01-26T15:04:40.425Z,8.93
2023-01-26T15:08:18.547Z,9.63
2023-01-26T15:12:17.103Z,11.02
2023-01-26T15:16:14.266Z,10.05
2023-01-26T15:19:45.992Z,9.20
2023-01-26T15:23:17.979Z,8.20
2023-01-26T15:26:51.529Z,7.65
2023-01-26T15:30:31.500Z,7.38
2023-01-26T15:34:04.883Z,7.97
2023-01-26T15:37:37.261Z,8.15
2023-01-26T15:41:09.689Z,8.82
2023-01-26T15:44:42.560Z,9.77
2023-01-26T15:48:14.451Z,9.43
2023-01-26T15:51:46.786Z,10.45
2023-01-26T15:55:22.020Z,10.13
2023-01-26T15:58:54.178Z,9.93
2023-01-26T16:02:28.642Z,10.48
2023-01-26T16:06:00.715Z,10.68
2023-01-26T16:09:32.592Z,10.13
2023-01-26T16:13:12.624Z,9.10
2023-01-26T16:16:44.850Z,11.35
2023-01-26T16:20:18.270Z,9.73
2023-01-26T16:23:50.101Z,10.32
2023-01-26T16:27:22.648Z,10.80
2023-01-26T16:30:54.428Z,9.63
2023-01-26T16:34:27.927Z,12.88
2023-01-26T16:37:59.698Z,11.82
2023-01-26T16:41:32.853Z,10.25
2023-01-26T16:45:05.865Z,10.37
2023-01-26T16:48:40.238Z,12.05
2023-01-26T16:52:12.294Z,13.15
2023-01-26T16:55:44.315Z,11.53
2023-01-26T16:59:16.094Z,13.00
2023-01-26T17:02:50.829Z,10.45
2023-01-26T17:06:23.547Z,12.07
2023-01-26T17:09:55.634Z,10.43
2023-01-26T17:13:27.564Z,9.48
2023-01-26T17:17:02.009Z,10.38
2023-01-26T17:20:33.869Z,8.03
2023-01-26T17:24:07.173Z,8.82
2023-01-26T17:27:39.163Z,9.13
2023-01-26T17:31:14.010Z,11.87
2023-01-26T17:34:45.991Z,19.65
2023-01-26T17:38:18.152Z,14.80
2023-01-26T17:41:50.071Z,15.70
2023-01-26T17:45:23.340Z,13.65
2023-01-26T17:48:55.161Z,13.20
2023-01-26T17:52:27.511Z,10.55
2023-01-26T17:55:59.326Z,9.17
2023-01-26T17:59:31.376Z,10.95
2023-01-26T18:03:14.830Z,9.27
2023-01-26T18:06:46.967Z,9.10
2023-01-26T18:10:18.713Z,11.00
2023-01-26T18:13:54.168Z,11.57
2023-01-26T18:17:26.047Z,10.07
2023-01-26T18:20:58.219Z,10.10
2023-01-26T18:24:30.478Z,8.32
2023-01-26T18:28:03.309Z,9.23
2023-01-26T18:31:38.167Z,8.33
2023-01-26T18:35:10.445Z,8.82
2023-01-26T18:38:47.679Z,8.88
2023-01-26T18:42:19.721Z,8.60
2023-01-26T18:45:51.444Z,8.38
2023-01-26T18:49:23.918Z,11.85
2023-01-26T18:52:55.901Z,12.50
2023-01-26T18:56:28.065Z,8.45
2023-01-26T18:59:59.916Z,8.75
2023-01-26T19:03:32.965Z,7.47
2023-01-26T19:07:04.922Z,7.87
2023-01-26T19:10:38.534Z,7.30
2023-01-26T19:14:10.563Z,9.02
2023-01-26T19:17:44.958Z,8.90
2023-01-26T19:21:21.728Z,10.27
2023-01-26T19:24:54.085Z,10.93
2023-01-26T19:28:25.937Z,10.50
2023-01-26T19:35:57.272Z,10.35
2023-01-26T19:39:30.275Z,11.38
2023-01-26T19:46:55.925Z,9.80
2023-01-26T19:50:28.058Z,11.32
2023-01-26T19:54:00.060Z,9.60
2023-01-26T19:57:32.684Z,9.60
2023-01-26T20:01:07.433Z,12.77
2023-01-26T20:04:39.891Z,13.40
2023-01-26T20:08:11.895Z,11.98
2023-01-26T20:11:43.879Z,11.80
2023-01-26T20:15:16.053Z,11.95
2023-01-26T20:18:47.789Z,10.00
2023-01-26T20:22:20.272Z,9.43
2023-01-26T20:25:52.560Z,9.02
2023-01-26T20:29:25.690Z,10.20
2023-01-26T20:32:57.495Z,10.55
2023-01-26T20:36:42.772Z,11.43
2023-01-26T20:40:16.160Z,7.67
2023-01-26T20:43:59.341Z,9.77
2023-01-26T20:47:34.114Z,10.48
2023-01-26T20:51:15.073Z,10.27
2023-01-26T20:54:47.100Z,11.67
2023-01-26T20:58:19.244Z,12.63
2023-01-26T21:01:51.694Z,11.00
2023-01-26T21:05:23.965Z,11.23
2023-01-26T21:08:59.285Z,10.93
2023-01-26T21:12:35.161Z,11.27
2023-01-26T21:16:07.980Z,14.67
2023-01-26T21:19:40.106Z,14.00
2023-01-26T21:23:13.314Z,13.70
2023-01-26T21:26:48.253Z,12.75
2023-01-26T21:30:20.945Z,12.93
2023-01-26T21:33:53.646Z,15.13
2023-01-26T21:37:25.619Z,10.55
2023-01-26T21:40:59.827Z,13.67
2023-01-26T21:44:33.234Z,11.10
2023-01-26T21:48:26.488Z,10.68
2023-01-26T21:52:17.451Z,10.60
2023-01-26T21:55:49.555Z,11.45
2023-01-26T21:59:21.677Z,10.52
2023-01-26T22:02:54.656Z,10.32
2023-01-26T22:06:27.177Z,12.23
2023-01-26T22:09:59.236Z,12.07
2023-01-26T22:13:31.522Z,9.57
2023-01-26T22:17:03.343Z,7.93
2023-01-26T22:24:43.943Z,8.30
2023-01-26T22:28:16.155Z,10.77
2023-01-26T22:31:48.052Z,10.48
2023-01-26T22:35:20.101Z,11.02
2023-01-26T22:38:53.128Z,10.05
2023-01-26T22:42:25.391Z,10.53
2023-01-26T22:46:05.246Z,9.75
2023-01-26T22:49:37.426Z,9.05
2023-01-26T22:53:09.591Z,7.80
2023-01-26T22:56:41.363Z,8.40
2023-01-26T23:00:14.179Z,8.70
2023-01-26T23:03:49.949Z,8.10
2023-01-26T23:07:24.451Z,8.20
2023-01-26T23:11:08.768Z,7.35
2023-01-26T23:14:40.884Z,7.28
2023-01-26T23:18:12.704Z,7.40
2023-01-26T23:21:44.661Z,8.20
2023-01-26T23:25:37.096Z,7.50
2023-01-26T23:29:09.374Z,8.73
2023-01-26T23:32:41.079Z,7.95
2023-01-26T23:36:14.417Z,7.65
2023-01-26T23:39:46.094Z,10.43
2023-01-26T23:43:19.280Z,9.68
2023-01-26T23:46:51.241Z,9.07
2023-01-26T23:50:23.897Z,11.05
2023-01-26T23:53:57.207Z,12.30
2023-01-26T23:57:29.205Z,11.05
